createdAt,value
2022-10-15T00:00:52.927Z,15.12
2022-10-15T00:03:55.805Z,14.98
2022-10-15T00:06:59.057Z,15.11
2022-10-15T00:10:02.116Z,15.09
2022-10-15T00:13:06.533Z,15.04
2022-10-15T00:16:14.181Z,15.06
2022-10-15T00:19:17.218Z,15.01
2022-10-15T00:22:20.218Z,14.96
2022-10-15T00:25:23.715Z,14.99
2022-10-15T00:28:30.590Z,14.92
2022-10-15T00:31:37.617Z,15.01
2022-10-15T00:34:40.329Z,15.04
2022-10-15T00:37:44.098Z,15.02
2022-10-15T00:40:46.832Z,15.07
2022-10-15T00:43:51.651Z,15.06
2022-10-15T00:46:59.181Z,15.03
2022-10-15T00:50:06.384Z,15.06
2022-10-15T00:53:10.891Z,15.06
2022-10-15T00:56:14.713Z,15.00
2022-10-15T00:59:21.954Z,14.99
2022-10-15T01:02:26.381Z,14.98
2022-10-15T01:05:30.135Z,14.99
2022-10-15T01:08:32.998Z,14.97
2022-10-15T01:11:41.877Z,14.98
2022-10-15T01:14:52.538Z,14.91
2022-10-15T01:18:00.045Z,14.88
2022-10-15T01:21:10.316Z,14.93
2022-10-15T01:24:43.968Z,14.95
2022-10-15T01:27:52.254Z,14.93
2022-10-15T01:31:01.540Z,14.95
2022-10-15T01:34:14.973Z,14.93
2022-10-15T01:37:27.038Z,14.88
2022-10-15T01:40:36.197Z,14.81
2022-10-15T01:43:45.776Z,14.77
2022-10-15T01:46:54.901Z,14.71
2022-10-15T01:50:02.544Z,14.61
2022-10-15T01:53:09.562Z,14.64
2022-10-15T01:56:19.229Z,14.59
2022-10-15T01:59:25.622Z,14.55
2022-10-15T02:02:30.013Z,14.55
2022-10-15T02:05:39.134Z,14.54
2022-10-15T02:08:49.936Z,14.58
2022-10-15T02:12:01.265Z,14.54
2022-10-15T02:15:11.125Z,14.57
2022-10-15T02:18:22.641Z,14.60
2022-10-15T02:21:32.872Z,14.57
2022-10-15T02:24:40.490Z,14.47
2022-10-15T02:27:46.771Z,14.56
2022-10-15T02:30:53.816Z,14.56
2022-10-15T02:34:03.352Z,14.54
2022-10-15T02:37:08.152Z,14.56
2022-10-15T02:40:12.039Z,14.59
2022-10-15T02:43:16.272Z,14.58
2022-10-15T02:46:21.257Z,14.61
2022-10-15T02:49:25.275Z,14.59
2022-10-15T02:52:28.331Z,14.58
2022-10-15T02:55:31.108Z,14.47
2022-10-15T02:58:34.642Z,14.57
2022-10-15T03:01:37.344Z,14.64
2022-10-15T03:04:41.929Z,14.56
2022-10-15T03:07:44.611Z,14.57
2022-10-15T03:10:47.805Z,14.55
2022-10-15T03:13:50.503Z,14.59
2022-10-15T03:16:53.588Z,14.57
2022-10-15T03:19:57.609Z,14.56
2022-10-15T03:23:01.028Z,14.65
2022-10-15T03:26:04.087Z,14.68
2022-10-15T03:29:06.807Z,14.64
2022-10-15T03:32:09.916Z,14.67
2022-10-15T03:35:13.994Z,14.68
2022-10-15T03:38:17.057Z,14.66
2022-10-15T03:41:19.738Z,14.72
2022-10-15T03:44:22.565Z,14.74
2022-10-15T03:47:25.279Z,14.73
2022-10-15T03:50:29.761Z,14.77
2022-10-15T03:53:32.436Z,14.76
2022-10-15T03:56:35.212Z,14.74
2022-10-15T03:59:39.076Z,14.74
2022-10-15T04:02:42.393Z,14.78
2022-10-15T04:05:54.112Z,14.72
2022-10-15T04:08:58.436Z,14.80
2022-10-15T04:12:01.112Z,14.86
2022-10-15T04:15:04.359Z,14.86
2022-10-15T04:18:06.996Z,14.84
2022-10-15T04:21:12.102Z,14.78
2022-10-15T04:24:15.318Z,14.80
2022-10-15T04:27:18.000Z,14.86
2022-10-15T04:30:21.311Z,14.90
2022-10-15T04:33:23.956Z,14.90
2022-10-15T04:36:28.024Z,14.94
2022-10-15T04:39:30.660Z,14.96
2022-10-15T04:42:33.714Z,14.98
2022-10-15T04:45:36.347Z,15.01
2022-10-15T04:48:43.013Z,14.92
2022-10-15T04:51:47.518Z,15.02
2022-10-15T04:54:50.275Z,14.99
2022-10-15T04:57:52.936Z,14.98
2022-10-15T05:01:00.875Z,15.02
2022-10-15T05:04:04.033Z,15.06
2022-10-15T05:07:08.508Z,15.10
2022-10-15T05:10:11.293Z,15.12
2022-10-15T05:13:14.251Z,15.14
2022-10-15T05:16:19.472Z,15.16
2022-10-15T05:19:22.316Z,15.17
2022-10-15T05:22:27.051Z,15.18
2022-10-15T05:25:29.887Z,15.22
2022-10-15T05:28:33.170Z,15.24
2022-10-15T05:31:36.343Z,15.22
2022-10-15T05:34:39.042Z,15.25
2022-10-15T05:37:43.202Z,15.25
2022-10-15T05:40:50.124Z,15.24
2022-10-15T05:43:54.319Z,15.27
2022-10-15T05:46:56.998Z,15.28
2022-10-15T05:50:00.189Z,15.28
2022-10-15T05:53:04.265Z,15.30
2022-10-15T05:56:08.949Z,15.35
2022-10-15T05:59:11.735Z,15.38
2022-10-15T06:02:16.747Z,15.39
2022-10-15T06:05:19.464Z,15.42
2022-10-15T06:08:23.775Z,15.36
2022-10-15T06:11:26.547Z,15.46
2022-10-15T06:14:30.652Z,15.48
2022-10-15T06:17:33.442Z,15.49
2022-10-15T06:20:37.561Z,15.50
2022-10-15T06:23:41.660Z,15.50
2022-10-15T06:26:44.742Z,15.51
2022-10-15T06:29:47.421Z,15.52
2022-10-15T06:32:51.414Z,15.51
2022-10-15T06:35:54.634Z,15.54
2022-10-15T06:38:58.698Z,15.56
2022-10-15T06:42:02.215Z,15.59
2022-10-15T06:45:05.374Z,15.58
2022-10-15T06:48:09.022Z,15.59
2022-10-15T06:51:12.787Z,15.60
2022-10-15T06:54:16.906Z,15.60
2022-10-15T06:57:20.315Z,15.62
2022-10-15T07:00:23.701Z,15.62
2022-10-15T07:03:26.472Z,15.64
2022-10-15T07:06:29.197Z,15.64
2022-10-15T07:09:34.276Z,15.61
2022-10-15T07:12:37.671Z,15.61
2022-10-15T07:15:40.363Z,15.63
2022-10-15T07:18:43.072Z,15.67
2022-10-15T07:21:46.554Z,15.72
2022-10-15T07:24:50.595Z,15.80
2022-10-15T07:27:53.782Z,15.86
2022-10-15T07:31:00.880Z,15.92
2022-10-15T07:34:03.638Z,15.94
2022-10-15T07:37:06.419Z,15.96
2022-10-15T07:40:11.809Z,16.01
2022-10-15T07:43:15.922Z,16.11
2022-10-15T07:46:19.083Z,16.17
2022-10-15T07:49:21.798Z,16.24
2022-10-15T07:52:24.790Z,16.28
2022-10-15T07:55:29.562Z,16.29
2022-10-15T07:58:34.656Z,16.34
2022-10-15T08:01:39.867Z,16.36
2022-10-15T08:04:42.961Z,16.44
2022-10-15T08:07:45.660Z,16.54
2022-10-15T08:10:50.162Z,16.67
2022-10-15T08:13:54.103Z,16.78
2022-10-15T08:16:57.012Z,16.90
2022-10-15T08:19:59.716Z,16.98
2022-10-15T08:23:03.240Z,17.06
2022-10-15T08:26:07.826Z,17.06
2022-10-15T08:29:11.718Z,17.00
2022-10-15T08:32:14.675Z,16.98
2022-10-15T08:35:17.868Z,16.96
2022-10-15T08:38:20.621Z,17.00
2022-10-15T08:41:30.293Z,17.06
2022-10-15T08:44:39.966Z,17.15
2022-10-15T08:47:47.566Z,17.26
2022-10-15T08:50:59.013Z,17.27
2022-10-15T08:54:04.559Z,17.47
2022-10-15T08:57:21.966Z,17.62
2022-10-15T09:00:27.216Z,17.71
2022-10-15T09:03:38.504Z,17.76
2022-10-15T09:06:43.024Z,17.85
2022-10-15T09:09:50.047Z,17.98
2022-10-15T09:13:02.332Z,18.10
2022-10-15T09:16:12.095Z,18.11
2022-10-15T09:19:18.442Z,18.11
2022-10-15T09:22:26.431Z,18.17
2022-10-15T09:25:35.703Z,18.22
2022-10-15T09:28:48.629Z,18.30
2022-10-15T09:31:59.697Z,18.36
2022-10-15T09:35:17.356Z,18.40
2022-10-15T09:38:28.931Z,18.52
2022-10-15T09:41:45.077Z,18.61
2022-10-15T09:44:49.528Z,18.67
2022-10-15T09:47:52.799Z,18.77
2022-10-15T09:50:59.518Z,18.86
2022-10-15T09:54:10.837Z,18.98
2022-10-15T09:57:16.929Z,19.00
2022-10-15T10:00:21.196Z,19.10
2022-10-15T10:03:26.057Z,19.18
2022-10-15T10:06:28.912Z,19.28
2022-10-15T10:09:35.528Z,19.26
2022-10-15T10:12:38.888Z,19.49
2022-10-15T10:15:44.108Z,19.62
2022-10-15T10:19:03.704Z,19.66
2022-10-15T10:22:16.465Z,19.68
2022-10-15T10:26:09.592Z,19.76
2022-10-15T10:29:33.714Z,19.76
2022-10-15T10:32:39.490Z,20.03
2022-10-15T10:35:46.812Z,20.15
2022-10-15T10:38:59.295Z,20.22
2022-10-15T10:42:05.395Z,20.36
2022-10-15T10:45:18.990Z,20.51
2022-10-15T10:48:26.546Z,20.71
2022-10-15T10:51:31.007Z,20.98
2022-10-15T10:54:35.247Z,21.13
2022-10-15T10:57:45.768Z,21.13
2022-10-15T11:00:50.347Z,21.04
2022-10-15T11:03:54.815Z,20.96
2022-10-15T11:07:04.747Z,20.85
2022-10-15T11:10:15.480Z,20.77
2022-10-15T11:13:41.999Z,20.76
2022-10-15T11:16:54.889Z,20.76
2022-10-15T11:20:28.560Z,20.87
2022-10-15T11:23:51.825Z,20.94
2022-10-15T11:27:10.991Z,21.02
2022-10-15T11:30:31.111Z,21.12
2022-10-15T11:33:57.110Z,21.28
2022-10-15T11:37:16.400Z,21.35
2022-10-15T11:40:22.766Z,21.40
2022-10-15T11:43:49.230Z,21.41
2022-10-15T11:47:04.377Z,21.67
2022-10-15T11:50:20.437Z,21.68
2022-10-15T11:53:57.803Z,21.63
2022-10-15T11:57:03.581Z,21.65
2022-10-15T12:00:17.029Z,21.66
2022-10-15T12:03:24.171Z,21.82
2022-10-15T12:06:31.368Z,21.97
2022-10-15T12:09:40.567Z,22.09
2022-10-15T12:12:52.762Z,22.13
2022-10-15T12:16:07.048Z,22.16
2022-10-15T12:19:17.148Z,22.11
2022-10-15T12:22:34.757Z,22.25
2022-10-15T12:25:46.034Z,22.22
2022-10-15T12:28:51.571Z,22.12
2022-10-15T12:31:57.081Z,21.94
2022-10-15T12:35:02.031Z,21.86
2022-10-15T12:38:23.259Z,21.79
2022-10-15T12:41:39.138Z,21.78
2022-10-15T12:44:41.942Z,21.73
2022-10-15T12:47:49.723Z,21.65
2022-10-15T12:51:39.423Z,21.61
2022-10-15T12:54:43.459Z,21.60
2022-10-15T12:57:55.593Z,21.61
2022-10-15T13:00:58.508Z,21.50
2022-10-15T13:04:02.360Z,21.37
2022-10-15T13:07:06.345Z,21.21
2022-10-15T13:10:21.489Z,21.06
2022-10-15T13:13:29.284Z,21.01
2022-10-15T13:16:32.362Z,21.00
2022-10-15T13:19:39.238Z,21.00
2022-10-15T13:22:42.075Z,21.16
2022-10-15T13:25:44.902Z,21.28
2022-10-15T13:28:50.030Z,21.29
2022-10-15T13:31:55.545Z,21.27
2022-10-15T13:34:58.569Z,21.23
2022-10-15T13:38:01.881Z,21.10
2022-10-15T13:41:04.833Z,20.98
2022-10-15T13:44:21.852Z,20.85
2022-10-15T13:47:29.097Z,20.76
2022-10-15T13:50:34.722Z,20.75
2022-10-15T13:53:41.144Z,20.65
2022-10-15T13:56:49.549Z,20.63
2022-10-15T13:59:54.601Z,20.52
2022-10-15T14:03:25.365Z,20.39
2022-10-15T14:06:30.078Z,20.33
2022-10-15T14:09:34.857Z,20.27
2022-10-15T14:12:37.698Z,20.15
2022-10-15T14:15:44.476Z,20.04
2022-10-15T14:18:50.153Z,19.90
2022-10-15T14:21:52.973Z,19.80
2022-10-15T14:24:57.611Z,19.66
2022-10-15T14:28:00.406Z,19.62
2022-10-15T14:31:06.194Z,19.57
2022-10-15T14:34:29.534Z,19.51
2022-10-15T14:37:40.285Z,19.30
2022-10-15T14:40:57.096Z,19.43
2022-10-15T14:44:19.222Z,19.47
2022-10-15T14:47:26.920Z,19.48
2022-10-15T14:50:32.820Z,19.47
2022-10-15T14:53:39.556Z,19.41
2022-10-15T14:56:42.548Z,19.33
2022-10-15T14:59:45.909Z,19.22
2022-10-15T15:02:50.281Z,19.15
2022-10-15T15:05:54.691Z,19.12
2022-10-15T15:08:57.766Z,19.09
2022-10-15T15:12:01.016Z,19.14
2022-10-15T15:15:03.915Z,19.12
2022-10-15T15:18:10.198Z,19.06
2022-10-15T15:21:16.072Z,19.05
2022-10-15T15:24:18.843Z,19.01
2022-10-15T15:27:27.102Z,19.00
2022-10-15T15:30:32.738Z,19.02
2022-10-15T15:33:37.184Z,18.95
2022-10-15T15:36:39.953Z,18.92
2022-10-15T15:39:42.917Z,18.93
2022-10-15T15:42:46.925Z,18.92
2022-10-15T15:45:49.670Z,18.93
2022-10-15T15:48:53.764Z,18.90
2022-10-15T15:51:56.779Z,18.87
2022-10-15T15:54:59.753Z,18.76
2022-10-15T15:58:02.444Z,18.84
2022-10-15T16:01:05.391Z,18.82
2022-10-15T16:04:09.452Z,18.82
2022-10-15T16:07:13.554Z,18.83
2022-10-15T16:10:16.966Z,18.84
2022-10-15T16:13:19.697Z,18.82
2022-10-15T16:16:22.608Z,18.80
2022-10-15T16:19:26.830Z,18.74
2022-10-15T16:22:29.802Z,18.74
2022-10-15T16:25:32.501Z,18.72
2022-10-15T16:28:35.568Z,18.67
2022-10-15T16:31:38.538Z,18.64
2022-10-15T16:34:42.896Z,18.60
2022-10-15T16:37:46.186Z,18.58
2022-10-15T16:40:48.916Z,18.56
2022-10-15T16:43:51.757Z,18.54
2022-10-15T16:46:54.699Z,18.54
2022-10-15T16:49:59.084Z,18.53
2022-10-15T16:53:02.061Z,18.52
2022-10-15T16:56:07.645Z,18.50
2022-10-15T16:59:10.827Z,18.48
2022-10-15T17:02:13.636Z,18.42
2022-10-15T17:05:17.814Z,18.37
2022-10-15T17:08:22.450Z,18.35
2022-10-15T17:11:27.627Z,18.31
2022-10-15T17:14:30.490Z,18.27
2022-10-15T17:17:33.187Z,18.23
2022-10-15T17:20:44.484Z,18.22
2022-10-15T17:23:47.658Z,18.19
2022-10-15T17:26:50.425Z,18.10
2022-10-15T17:29:53.589Z,18.03
2022-10-15T17:32:56.587Z,18.02
2022-10-15T17:36:04.461Z,18.00
2022-10-15T17:39:07.169Z,18.05
2022-10-15T17:42:10.210Z,18.07
2022-10-15T17:45:13.197Z,18.07
2022-10-15T17:48:16.380Z,18.10
2022-10-15T17:51:22.488Z,18.12
2022-10-15T17:54:25.719Z,18.15
2022-10-15T17:57:29.390Z,18.05
2022-10-15T18:00:32.318Z,18.14
2022-10-15T18:03:35.407Z,18.17
2022-10-15T18:06:39.521Z,18.13
2022-10-15T18:09:42.820Z,18.11
2022-10-15T18:12:45.460Z,18.13
2022-10-15T18:15:49.557Z,18.11
2022-10-15T18:18:53.777Z,18.13
2022-10-15T18:21:58.811Z,18.15
2022-10-15T18:25:02.222Z,18.15
2022-10-15T18:28:05.365Z,18.14
2022-10-15T18:31:11.837Z,18.16
2022-10-15T18:34:15.074Z,18.15
2022-10-15T18:37:19.458Z,18.13
2022-10-15T18:40:22.212Z,18.15
2022-10-15T18:43:25.264Z,18.16
2022-10-15T18:46:28.761Z,18.14
2022-10-15T18:49:31.960Z,18.14
2022-10-15T18:52:39.905Z,18.13
2022-10-15T18:55:43.531Z,18.14
2022-10-15T18:58:46.957Z,18.10
2022-10-15T19:01:50.365Z,18.11
2022-10-15T19:04:53.835Z,18.12
2022-10-15T19:07:58.099Z,18.12
2022-10-15T19:11:06.672Z,18.13
2022-10-15T19:14:10.651Z,17.96
2022-10-15T19:17:13.962Z,18.14
2022-10-15T19:20:17.099Z,18.14
2022-10-15T19:23:21.853Z,18.12
2022-10-15T19:26:25.308Z,18.07
2022-10-15T19:29:31.533Z,17.98
2022-10-15T19:32:37.452Z,17.92
2022-10-15T19:35:41.170Z,17.88
2022-10-15T19:38:45.622Z,17.86
2022-10-15T19:41:49.133Z,17.77
2022-10-15T19:44:52.059Z,17.75
2022-10-15T19:47:58.619Z,17.66
2022-10-15T19:51:06.303Z,17.60
2022-10-15T19:54:10.797Z,17.65
2022-10-15T19:57:14.847Z,17.68
2022-10-15T20:00:18.214Z,17.67
2022-10-15T20:03:22.008Z,17.66
2022-10-15T20:06:24.935Z,17.67
2022-10-15T20:09:29.440Z,17.66
2022-10-15T20:12:32.520Z,17.67
2022-10-15T20:15:35.580Z,17.63
2022-10-15T20:18:38.661Z,17.60
2022-10-15T20:21:42.557Z,17.65
2022-10-15T20:24:46.741Z,17.50
2022-10-15T20:27:49.463Z,17.46
2022-10-15T20:30:55.661Z,17.46
2022-10-15T20:33:58.794Z,17.48
2022-10-15T20:37:02.172Z,17.41
2022-10-15T20:40:07.798Z,17.34
2022-10-15T20:43:10.847Z,17.33
2022-10-15T20:46:17.699Z,17.43
2022-10-15T20:49:22.895Z,17.39
2022-10-15T20:52:26.263Z,17.40
2022-10-15T20:55:30.595Z,17.37
2022-10-15T20:58:33.832Z,17.34
2022-10-15T21:01:37.268Z,17.32
2022-10-15T21:04:41.123Z,17.32
2022-10-15T21:07:44.079Z,17.35
2022-10-15T21:10:48.723Z,17.38
2022-10-15T21:13:52.252Z,17.33
2022-10-15T21:16:55.595Z,17.33
2022-10-15T21:19:58.698Z,17.36
2022-10-15T21:23:01.530Z,17.39
2022-10-15T21:26:07.709Z,17.38
2022-10-15T21:29:15.637Z,17.39
2022-10-15T21:32:18.929Z,17.38
2022-10-15T21:35:21.637Z,17.36
2022-10-15T21:38:24.376Z,17.34
2022-10-15T21:41:30.831Z,17.36
2022-10-15T21:44:34.424Z,17.37
2022-10-15T21:47:37.589Z,17.35
2022-10-15T21:50:40.330Z,17.31
2022-10-15T21:53:44.066Z,17.27
2022-10-15T21:56:48.206Z,17.24
2022-10-15T21:59:51.184Z,17.21
2022-10-15T22:02:54.282Z,17.14
2022-10-15T22:05:59.882Z,17.06
2022-10-15T22:09:04.029Z,16.97
2022-10-15T22:12:08.543Z,16.87
2022-10-15T22:15:11.995Z,16.77
2022-10-15T22:18:14.679Z,16.67
2022-10-15T22:21:19.776Z,16.51
2022-10-15T22:24:22.512Z,16.54
2022-10-15T22:27:27.568Z,16.56
2022-10-15T22:30:30.565Z,16.64
2022-10-15T22:33:35.137Z,16.70
2022-10-15T22:36:38.323Z,16.79
2022-10-15T22:39:41.078Z,16.82
2022-10-15T22:42:46.302Z,16.84
2022-10-15T22:45:49.552Z,16.90
2022-10-15T22:48:53.864Z,16.91
2022-10-15T22:51:57.018Z,16.89
2022-10-15T22:55:00.032Z,16.98
2022-10-15T22:58:04.404Z,16.98
2022-10-15T23:01:08.824Z,16.90
2022-10-15T23:04:13.995Z,16.82
2022-10-15T23:07:17.057Z,16.81
2022-10-15T23:10:19.796Z,16.87
2022-10-15T23:13:24.148Z,16.87
2022-10-15T23:16:30.273Z,16.88
2022-10-15T23:19:33.589Z,16.93
2022-10-15T23:22:36.937Z,16.93
2022-10-15T23:25:40.064Z,16.96
2022-10-15T23:28:46.161Z,16.99
2022-10-15T23:31:49.944Z,17.00
2022-10-15T23:34:53.074Z,17.00
2022-10-15T23:37:56.353Z,17.03
2022-10-15T23:41:03.622Z,17.06
2022-10-15T23:44:08.103Z,17.09
2022-10-15T23:47:10.823Z,17.09
2022-10-15T23:50:13.914Z,17.07
2022-10-15T23:53:16.745Z,17.13
2022-10-15T23:56:20.040Z,17.10
2022-10-15T23:59:24.671Z,17.13
